createdAt,value
2018-06-16T00:01:48.631Z,6.37
2018-06-16T00:04:16.159Z,6.60
2018-06-16T00:06:43.568Z,10.10
2018-06-16T00:09:10.978Z,7.10
2018-06-16T00:11:38.763Z,7.73
2018-06-16T00:14:06.203Z,7.50
2018-06-16T00:16:33.594Z,7.07
2018-06-16T00:19:01.337Z,13.30
2018-06-16T00:21:28.795Z,11.07
2018-06-16T00:23:56.115Z,8.07
2018-06-16T00:26:23.704Z,7.27
2018-06-16T00:28:51.039Z,7.60
2018-06-16T00:31:18.399Z,7.07
2018-06-16T00:33:45.786Z,7.30
2018-06-16T00:36:13.324Z,7.37
2018-06-16T00:38:40.656Z,9.20
2018-06-16T00:41:08.040Z,7.67
2018-06-16T00:43:35.333Z,9.87
2018-06-16T00:46:02.684Z,7.43
2018-06-16T00:48:30.075Z,7.87
2018-06-16T00:50:57.479Z,8.67
2018-06-16T00:53:24.750Z,9.03
2018-06-16T00:55:52.070Z,7.53
2018-06-16T00:58:19.512Z,6.00
2018-06-16T01:00:46.943Z,6.23
2018-06-16T01:03:14.497Z,7.10
2018-06-16T01:05:41.958Z,6.33
2018-06-16T01:08:09.344Z,5.90
2018-06-16T01:10:36.681Z,6.47
2018-06-16T01:13:04.065Z,7.90
2018-06-16T01:15:31.482Z,5.83
2018-06-16T01:17:58.967Z,7.90
2018-06-16T01:20:26.290Z,5.47
2018-06-16T01:22:53.663Z,6.30
2018-06-16T01:25:21.127Z,7.13
2018-06-16T01:27:48.547Z,7.97
2018-06-16T01:30:15.933Z,11.20
2018-06-16T01:32:43.262Z,8.37
2018-06-16T01:35:10.614Z,6.20
2018-06-16T01:37:37.928Z,8.13
2018-06-16T01:40:05.267Z,8.17
2018-06-16T01:42:32.586Z,8.40
2018-06-16T01:44:59.979Z,7.93
2018-06-16T01:47:27.303Z,6.77
2018-06-16T01:49:54.586Z,6.27
2018-06-16T01:52:21.919Z,5.77
2018-06-16T01:54:49.254Z,6.13
2018-06-16T01:57:16.572Z,6.03
2018-06-16T01:59:44.158Z,10.00
2018-06-16T02:02:11.538Z,7.43
2018-06-16T02:04:38.979Z,7.17
2018-06-16T02:07:06.284Z,9.27
2018-06-16T02:09:35.361Z,5.70
2018-06-16T02:12:02.682Z,8.90
2018-06-16T02:14:30.065Z,7.00
2018-06-16T02:16:57.381Z,7.33
2018-06-16T02:19:24.698Z,13.27
2018-06-16T02:21:52.015Z,6.30
2018-06-16T02:24:19.378Z,9.90
2018-06-16T02:26:46.671Z,10.53
2018-06-16T02:29:14.075Z,7.33
2018-06-16T02:31:41.371Z,7.90
2018-06-16T02:34:08.727Z,7.37
2018-06-16T02:36:36.019Z,7.37
2018-06-16T02:39:03.639Z,8.07
2018-06-16T02:41:30.939Z,7.30
2018-06-16T02:43:58.303Z,9.00
2018-06-16T02:46:25.648Z,7.50
2018-06-16T02:48:53.219Z,7.33
2018-06-16T02:51:20.491Z,7.30
2018-06-16T02:53:48.032Z,7.60
2018-06-16T02:56:15.460Z,15.87
2018-06-16T02:58:42.971Z,7.73
2018-06-16T03:01:10.375Z,10.33
2018-06-16T03:03:37.761Z,9.37
2018-06-16T03:06:05.090Z,11.40
2018-06-16T03:08:32.407Z,8.20
2018-06-16T03:10:59.811Z,7.43
2018-06-16T03:13:27.144Z,8.20
2018-06-16T03:15:54.451Z,10.97
2018-06-16T03:18:21.885Z,9.60
2018-06-16T03:20:49.338Z,11.40
2018-06-16T03:23:16.680Z,9.77
2018-06-16T03:25:44.165Z,9.43
2018-06-16T03:28:11.637Z,10.67
2018-06-16T03:30:38.958Z,7.33
2018-06-16T03:33:06.263Z,8.47
2018-06-16T03:35:33.557Z,9.07
2018-06-16T03:38:00.910Z,13.33
2018-06-16T03:40:28.262Z,13.27
2018-06-16T03:42:55.575Z,10.73
2018-06-16T03:45:22.975Z,9.20
2018-06-16T03:47:50.327Z,12.00
2018-06-16T03:50:17.693Z,11.70
2018-06-16T03:52:45.024Z,8.17
2018-06-16T03:55:12.350Z,14.37
2018-06-16T03:57:39.704Z,8.13
2018-06-16T04:00:07.017Z,10.80
2018-06-16T04:02:34.343Z,9.67
2018-06-16T04:05:01.707Z,13.97
2018-06-16T04:07:29.050Z,14.07
2018-06-16T04:09:56.383Z,10.67
2018-06-16T04:12:23.764Z,10.20
2018-06-16T04:14:51.349Z,19.17
2018-06-16T04:17:19.590Z,11.10
2018-06-16T04:19:47.989Z,18.17
2018-06-16T04:22:15.291Z,10.90
2018-06-16T04:24:43.076Z,16.40
2018-06-16T04:27:10.564Z,10.37
2018-06-16T04:29:37.979Z,12.97
2018-06-16T04:32:05.772Z,13.07
2018-06-16T04:34:33.544Z,18.33
2018-06-16T04:37:01.123Z,12.63
2018-06-16T04:39:28.420Z,16.27
2018-06-16T04:41:55.820Z,14.33
2018-06-16T04:44:23.163Z,16.27
2018-06-16T04:46:50.496Z,13.90
2018-06-16T04:49:17.814Z,19.77
2018-06-16T04:51:45.115Z,18.70
2018-06-16T04:54:12.475Z,18.73
2018-06-16T04:56:40.055Z,16.70
2018-06-16T04:59:07.391Z,21.67
2018-06-16T05:01:34.981Z,19.03
2018-06-16T05:04:02.316Z,21.87
2018-06-16T05:06:29.651Z,19.40
2018-06-16T05:08:57.023Z,18.63
2018-06-16T05:11:24.333Z,22.53
2018-06-16T05:13:51.901Z,21.27
2018-06-16T05:16:19.254Z,29.77
2018-06-16T05:18:46.840Z,21.07
2018-06-16T05:21:14.160Z,18.20
2018-06-16T05:23:41.543Z,22.93
2018-06-16T05:26:09.320Z,22.77
2018-06-16T05:28:36.658Z,25.07
2018-06-16T05:31:04.341Z,24.70
2018-06-16T05:33:31.899Z,23.87
2018-06-16T05:35:59.243Z,19.97
2018-06-16T05:38:26.831Z,23.07
2018-06-16T05:40:54.108Z,18.70
2018-06-16T05:43:21.503Z,22.30
2018-06-16T05:45:48.900Z,22.00
2018-06-16T05:48:16.248Z,29.50
2018-06-16T05:50:43.563Z,23.13
2018-06-16T05:53:10.930Z,23.10
2018-06-16T05:55:38.371Z,22.33
2018-06-16T05:58:05.827Z,22.50
2018-06-16T06:00:33.201Z,18.13
2018-06-16T06:03:00.619Z,27.17
2018-06-16T06:05:28.083Z,23.47
2018-06-16T06:07:55.456Z,25.60
2018-06-16T06:10:23.072Z,25.70
2018-06-16T06:12:50.335Z,35.63
2018-06-16T06:15:17.712Z,24.40
2018-06-16T06:17:45.107Z,23.00
2018-06-16T06:20:12.430Z,26.80
2018-06-16T06:22:39.791Z,23.03
2018-06-16T06:25:07.288Z,25.13
2018-06-16T06:27:34.683Z,21.80
2018-06-16T06:30:02.073Z,23.23
2018-06-16T06:32:29.415Z,25.70
2018-06-16T06:34:56.768Z,25.27
2018-06-16T06:37:24.113Z,25.23
2018-06-16T06:39:51.491Z,22.20
2018-06-16T06:42:18.822Z,26.77
2018-06-16T06:44:46.202Z,22.43
2018-06-16T06:47:13.678Z,21.73
2018-06-16T06:49:41.020Z,23.73
2018-06-16T06:52:08.413Z,21.40
2018-06-16T06:54:35.753Z,40.93
2018-06-16T06:57:03.105Z,22.83
2018-06-16T06:59:30.699Z,24.10
2018-06-16T07:01:58.238Z,23.03
2018-06-16T07:04:25.628Z,23.30
2018-06-16T07:06:52.959Z,25.33
2018-06-16T07:09:20.326Z,20.60
2018-06-16T07:11:47.657Z,23.30
2018-06-16T07:14:14.959Z,23.60
2018-06-16T07:16:42.387Z,20.50
2018-06-16T07:19:09.740Z,21.93
2018-06-16T07:34:48.780Z,23.60
2018-06-16T07:37:16.132Z,28.27
2018-06-16T07:39:43.456Z,30.23
2018-06-16T07:42:10.835Z,21.77
2018-06-16T07:44:38.188Z,24.60
2018-06-16T07:47:05.523Z,29.83
2018-06-16T07:49:32.911Z,29.47
2018-06-16T07:52:00.211Z,20.70
2018-06-16T07:54:27.612Z,28.07
2018-06-16T07:56:55.088Z,25.87
2018-06-16T07:59:22.399Z,25.77
2018-06-16T08:01:49.767Z,31.03
2018-06-16T08:04:17.094Z,29.37
2018-06-16T08:06:44.427Z,24.57
2018-06-16T08:09:11.738Z,26.67
2018-06-16T08:11:39.354Z,23.70
2018-06-16T08:14:06.733Z,28.83
2018-06-16T08:16:34.071Z,23.50
2018-06-16T08:19:01.375Z,22.57
2018-06-16T08:21:28.883Z,26.57
2018-06-16T08:23:56.206Z,25.57
2018-06-16T08:26:23.578Z,28.97
2018-06-16T08:28:51.015Z,24.93
2018-06-16T08:31:18.347Z,25.30
2018-06-16T08:33:45.795Z,24.20
2018-06-16T08:36:13.140Z,23.20
2018-06-16T08:38:40.484Z,28.00
2018-06-16T08:41:07.836Z,26.63
2018-06-16T08:43:35.207Z,27.53
2018-06-16T08:46:02.549Z,24.27
2018-06-16T08:48:29.923Z,25.03
2018-06-16T08:50:57.379Z,27.13
2018-06-16T08:53:24.744Z,23.83
2018-06-16T08:55:52.121Z,30.53
2018-06-16T08:58:19.514Z,26.00
2018-06-16T09:00:46.861Z,30.63
2018-06-16T09:03:14.239Z,32.37
2018-06-16T09:05:41.639Z,32.83
2018-06-16T09:08:08.960Z,23.10
2018-06-16T09:10:36.275Z,28.13
2018-06-16T09:13:03.755Z,24.83
2018-06-16T09:15:31.114Z,23.57
2018-06-16T09:17:58.462Z,27.37
2018-06-16T09:20:25.795Z,21.10
2018-06-16T09:22:53.468Z,21.37
2018-06-16T09:25:20.830Z,20.57
2018-06-16T09:27:48.195Z,18.57
2018-06-16T09:30:15.491Z,18.90
2018-06-16T09:32:42.892Z,19.40
2018-06-16T09:35:10.331Z,16.53
2018-06-16T09:37:37.711Z,18.43
2018-06-16T09:40:05.076Z,19.10
2018-06-16T09:42:32.442Z,17.13
2018-06-16T09:44:59.987Z,14.67
2018-06-16T09:47:27.311Z,18.10
2018-06-16T09:49:54.711Z,17.50
2018-06-16T09:52:22.041Z,15.87
2018-06-16T09:54:49.603Z,12.30
2018-06-16T09:57:17.031Z,14.20
2018-06-16T09:59:44.481Z,16.87
2018-06-16T10:02:11.829Z,12.17
2018-06-16T10:04:39.167Z,15.30
2018-06-16T10:07:06.540Z,18.30
2018-06-16T10:09:33.872Z,19.27
2018-06-16T10:12:01.253Z,14.80
2018-06-16T10:14:28.573Z,14.47
2018-06-16T10:16:55.880Z,11.50
2018-06-16T10:19:23.382Z,14.30
2018-06-16T10:21:50.722Z,17.50
2018-06-16T10:24:18.148Z,14.77
2018-06-16T10:26:45.592Z,11.87
2018-06-16T10:29:13.057Z,9.93
2018-06-16T10:31:40.402Z,12.60
2018-06-16T10:34:07.793Z,7.00
2018-06-16T10:36:35.216Z,10.27
2018-06-16T10:39:02.690Z,10.00
2018-06-16T10:41:30.067Z,8.60
2018-06-16T10:43:57.416Z,9.90
2018-06-16T10:46:24.851Z,8.07
2018-06-16T10:48:52.207Z,7.90
2018-06-16T10:51:19.605Z,10.73
2018-06-16T10:53:46.916Z,9.77
2018-06-16T10:56:14.398Z,6.50
2018-06-16T10:58:41.725Z,9.87
2018-06-16T11:01:09.085Z,6.90
2018-06-16T11:03:36.424Z,7.53
2018-06-16T11:06:03.870Z,7.70
2018-06-16T11:08:31.289Z,4.70
2018-06-16T11:10:58.707Z,8.60
2018-06-16T11:13:26.085Z,8.53
2018-06-16T11:15:53.461Z,6.27
2018-06-16T11:18:20.772Z,7.23
2018-06-16T11:20:48.194Z,8.70
2018-06-16T11:23:15.551Z,6.03
2018-06-16T11:25:43.106Z,6.03
2018-06-16T11:28:10.436Z,7.00
2018-06-16T11:30:37.751Z,5.90
2018-06-16T11:33:05.249Z,7.53
2018-06-16T11:35:32.562Z,4.50
2018-06-16T11:37:59.954Z,11.53
2018-06-16T11:40:27.276Z,6.20
2018-06-16T11:42:54.669Z,7.60
2018-06-16T11:45:22.076Z,8.43
2018-06-16T11:47:49.392Z,10.20
2018-06-16T11:50:16.787Z,12.40
2018-06-16T11:52:44.117Z,9.23
2018-06-16T11:55:11.495Z,9.43
2018-06-16T11:57:38.900Z,9.83
2018-06-16T12:00:06.293Z,11.83
2018-06-16T12:02:33.638Z,11.53
2018-06-16T12:05:01.100Z,12.93
2018-06-16T12:07:28.441Z,10.40
2018-06-16T12:09:55.767Z,10.80
2018-06-16T12:12:23.157Z,15.67
2018-06-16T12:14:50.700Z,11.87
2018-06-16T12:17:18.087Z,11.63
2018-06-16T12:19:45.441Z,16.43
2018-06-16T12:22:12.778Z,14.27
2018-06-16T12:24:40.170Z,16.07
2018-06-16T12:27:07.597Z,6.30
2018-06-16T12:29:34.937Z,8.30
2018-06-16T12:32:02.259Z,12.60
2018-06-16T12:34:29.615Z,11.70
2018-06-16T12:36:56.948Z,7.10
2018-06-16T12:39:24.268Z,10.73
2018-06-16T12:41:51.611Z,9.17
2018-06-16T12:44:19.050Z,9.83
2018-06-16T12:46:46.445Z,8.37
2018-06-16T12:49:13.777Z,8.57
2018-06-16T12:51:41.233Z,7.47
2018-06-16T12:54:08.633Z,6.93
2018-06-16T12:56:36.205Z,7.20
2018-06-16T12:59:03.709Z,18.57
2018-06-16T13:01:31.171Z,5.80
2018-06-16T13:03:58.686Z,8.63
2018-06-16T13:06:26.048Z,10.03
2018-06-16T13:08:53.435Z,9.93
2018-06-16T13:11:20.760Z,7.50
2018-06-16T13:13:48.220Z,5.03
2018-06-16T13:16:15.635Z,10.53
2018-06-16T13:18:42.973Z,7.10
2018-06-16T13:21:10.286Z,5.77
2018-06-16T13:23:37.597Z,7.77
2018-06-16T13:26:05.008Z,8.07
2018-06-16T13:28:32.350Z,9.23
2018-06-16T13:30:59.772Z,7.23
2018-06-16T13:33:27.286Z,8.17
2018-06-16T13:35:54.648Z,9.30
2018-06-16T13:38:21.979Z,7.47
2018-06-16T13:40:49.335Z,9.10
2018-06-16T13:43:16.683Z,7.93
2018-06-16T13:45:44.000Z,9.20
2018-06-16T13:48:11.445Z,4.63
2018-06-16T13:50:38.870Z,6.73
2018-06-16T13:53:06.211Z,6.00
2018-06-16T13:55:33.728Z,8.03
2018-06-16T13:58:01.277Z,7.00
2018-06-16T14:00:28.800Z,5.00
2018-06-16T14:03:02.583Z,6.97
2018-06-16T14:05:29.942Z,4.43
2018-06-16T14:07:57.513Z,8.93
2018-06-16T14:10:24.850Z,4.50
2018-06-16T14:12:52.291Z,7.77
2018-06-16T14:15:19.648Z,7.20
2018-06-16T14:17:47.035Z,6.70
2018-06-16T14:20:14.422Z,4.80
2018-06-16T14:22:41.811Z,9.90
2018-06-16T14:25:09.257Z,6.47
2018-06-16T14:27:36.605Z,9.60
2018-06-16T14:30:04.008Z,7.07
2018-06-16T14:32:31.456Z,6.97
2018-06-16T14:34:58.785Z,9.70
2018-06-16T14:37:26.502Z,6.77
2018-06-16T14:39:53.917Z,12.03
2018-06-16T14:42:21.235Z,6.17
2018-06-16T14:44:48.835Z,8.23
2018-06-16T14:47:16.165Z,6.27
2018-06-16T14:49:43.491Z,5.57
2018-06-16T14:52:11.030Z,5.10
2018-06-16T14:54:38.444Z,5.47
2018-06-16T14:57:05.878Z,6.23
2018-06-16T14:59:33.305Z,4.13
2018-06-16T15:02:00.693Z,6.33
2018-06-16T15:04:28.063Z,4.20
2018-06-16T15:06:55.532Z,7.30
2018-06-16T15:09:22.965Z,4.53
2018-06-16T15:11:50.403Z,6.00
2018-06-16T15:14:17.821Z,5.20
2018-06-16T15:16:45.272Z,5.73
2018-06-16T15:19:12.645Z,6.37
2018-06-16T15:21:39.988Z,4.50
2018-06-16T15:24:07.492Z,6.57
2018-06-16T15:26:34.850Z,7.23
2018-06-16T15:29:02.260Z,5.73
2018-06-16T15:31:29.555Z,6.90
2018-06-16T15:33:56.947Z,7.23
2018-06-16T15:36:24.348Z,7.10
2018-06-16T15:38:51.751Z,4.53
2018-06-16T15:41:19.126Z,6.03
2018-06-16T15:43:46.387Z,6.80
2018-06-16T15:46:13.935Z,3.83
2018-06-16T15:48:42.164Z,8.17
2018-06-16T15:51:09.539Z,6.83
2018-06-16T15:53:36.907Z,6.67
2018-06-16T15:56:04.501Z,6.10
2018-06-16T15:58:32.012Z,5.00
2018-06-16T16:00:59.485Z,6.10
2018-06-16T16:03:26.896Z,6.23
2018-06-16T16:05:54.226Z,5.77
2018-06-16T16:08:21.661Z,7.47
2018-06-16T16:10:49.089Z,6.33
2018-06-16T16:13:16.535Z,3.53
2018-06-16T16:15:43.877Z,5.60
2018-06-16T16:18:11.275Z,8.20
2018-06-16T16:20:38.590Z,4.80
2018-06-16T16:23:06.064Z,6.80
2018-06-16T16:25:33.415Z,7.50
2018-06-16T16:28:00.787Z,6.10
2018-06-16T16:30:28.211Z,6.80
2018-06-16T16:32:55.527Z,7.07
2018-06-16T16:35:22.881Z,7.57
2018-06-16T16:37:50.193Z,11.13
2018-06-16T16:40:17.650Z,7.57
2018-06-16T16:42:45.156Z,8.70
2018-06-16T16:45:12.583Z,9.07
2018-06-16T16:47:40.012Z,8.13
2018-06-16T16:50:07.393Z,9.40
2018-06-16T16:52:34.858Z,13.10
2018-06-16T16:55:02.298Z,9.07
2018-06-16T16:57:29.839Z,10.83
2018-06-16T16:59:57.276Z,11.70
2018-06-16T17:02:24.661Z,12.40
2018-06-16T17:04:51.975Z,11.73
2018-06-16T17:07:19.644Z,15.33
2018-06-16T17:09:47.139Z,11.90
2018-06-16T17:12:14.459Z,10.87
2018-06-16T17:14:41.966Z,12.17
2018-06-16T17:17:09.406Z,11.97
2018-06-16T17:19:36.961Z,11.70
2018-06-16T17:22:04.352Z,12.03
2018-06-16T17:24:31.753Z,12.13
2018-06-16T17:26:59.229Z,12.63
2018-06-16T17:29:26.570Z,12.80
2018-06-16T17:31:54.063Z,15.70
2018-06-16T17:34:21.466Z,11.60
2018-06-16T17:36:48.844Z,17.30
2018-06-16T17:39:16.164Z,12.90
2018-06-16T17:41:43.664Z,15.23
2018-06-16T17:44:11.072Z,13.37
2018-06-16T17:46:38.400Z,15.80
2018-06-16T17:49:05.887Z,14.30
2018-06-16T17:51:33.290Z,18.23
2018-06-16T17:54:00.629Z,14.70
2018-06-16T17:56:28.118Z,16.10
2018-06-16T17:58:55.487Z,13.47
2018-06-16T18:01:22.831Z,20.97
2018-06-16T18:03:50.291Z,14.43
2018-06-16T18:06:17.902Z,15.40
2018-06-16T18:08:45.363Z,14.93
2018-06-16T18:11:12.777Z,15.30
2018-06-16T18:13:40.303Z,14.17
2018-06-16T18:16:07.666Z,15.00
2018-06-16T18:18:35.164Z,14.03
2018-06-16T18:21:02.518Z,13.83
2018-06-16T18:23:29.929Z,15.73
2018-06-16T18:25:57.277Z,15.60
2018-06-16T18:28:24.679Z,15.63
2018-06-16T18:30:52.036Z,13.83
2018-06-16T18:33:19.378Z,14.80
2018-06-16T18:35:46.789Z,15.73
2018-06-16T18:38:14.146Z,15.20
2018-06-16T18:40:41.482Z,16.20
2018-06-16T18:43:08.892Z,15.70
2018-06-16T18:45:36.201Z,15.50
2018-06-16T18:48:03.662Z,14.37
2018-06-16T18:50:31.040Z,14.70
2018-06-16T18:52:58.365Z,12.07
2018-06-16T18:55:25.765Z,14.77
2018-06-16T18:57:53.192Z,17.13
2018-06-16T19:00:20.589Z,18.37
2018-06-16T19:02:48.022Z,18.90
2018-06-16T19:05:15.425Z,22.00
2018-06-16T19:07:42.746Z,18.67
2018-06-16T19:10:10.257Z,19.13
2018-06-16T19:12:37.700Z,19.23
2018-06-16T19:15:05.245Z,17.63
2018-06-16T19:17:32.847Z,17.73
2018-06-16T19:20:00.477Z,18.63
2018-06-16T19:22:27.959Z,22.10
2018-06-16T19:24:55.389Z,19.47
2018-06-16T19:27:22.807Z,21.50
2018-06-16T19:29:50.322Z,17.93
2018-06-16T19:32:17.772Z,18.20
2018-06-16T19:34:45.124Z,18.47
2018-06-16T19:37:12.533Z,17.83
2018-06-16T19:39:40.038Z,17.77
2018-06-16T19:42:07.411Z,18.10
2018-06-16T19:44:34.993Z,17.53
2018-06-16T19:47:02.387Z,18.00
2018-06-16T19:49:29.736Z,18.60
2018-06-16T19:51:57.164Z,21.93
2018-06-16T19:54:24.640Z,19.63
2018-06-16T19:56:52.084Z,19.60
2018-06-16T19:59:19.447Z,25.17
2018-06-16T20:01:46.912Z,21.53
2018-06-16T20:04:14.249Z,17.13
2018-06-16T20:06:41.677Z,23.10
2018-06-16T20:09:09.023Z,23.87
2018-06-16T20:11:36.376Z,18.23
2018-06-16T20:14:03.992Z,18.57
2018-06-16T20:16:31.521Z,22.50
2018-06-16T20:18:58.912Z,19.50
2018-06-16T20:21:26.378Z,21.40
2018-06-16T20:23:53.753Z,23.33
2018-06-16T20:26:21.170Z,23.80
2018-06-16T20:28:48.567Z,19.43
2018-06-16T20:31:16.021Z,17.37
2018-06-16T20:33:43.347Z,19.13
2018-06-16T20:36:10.800Z,17.63
2018-06-16T20:38:38.216Z,18.40
2018-06-16T20:41:05.596Z,16.57
2018-06-16T20:43:32.927Z,16.37
2018-06-16T20:46:00.295Z,18.30
2018-06-16T20:48:27.864Z,15.47
2018-06-16T20:50:55.229Z,16.30
2018-06-16T20:53:22.574Z,17.47
2018-06-16T20:55:49.899Z,15.53
2018-06-16T20:58:17.409Z,17.17
2018-06-16T21:00:44.911Z,18.00
2018-06-16T21:03:12.425Z,23.10
2018-06-16T21:05:39.871Z,16.60
2018-06-16T21:08:07.441Z,16.80
2018-06-16T21:10:34.871Z,18.07
2018-06-16T21:13:02.200Z,15.70
2018-06-16T21:15:29.544Z,16.70
2018-06-16T21:17:56.926Z,22.10
2018-06-16T21:20:24.327Z,13.20
2018-06-16T21:22:51.748Z,18.63
2018-06-16T21:25:19.084Z,18.30
2018-06-16T21:27:46.436Z,15.30
2018-06-16T21:30:13.929Z,15.77
2018-06-16T21:32:41.401Z,16.10
2018-06-16T21:35:08.758Z,17.40
2018-06-16T21:37:36.265Z,16.23
2018-06-16T21:40:03.616Z,15.40
2018-06-16T21:42:31.095Z,18.03
2018-06-16T21:44:58.462Z,13.20
2018-06-16T21:47:25.802Z,13.80
2018-06-16T21:49:53.235Z,19.43
2018-06-16T21:52:20.600Z,21.30
2018-06-16T21:54:47.971Z,19.40
2018-06-16T21:57:15.364Z,14.23
2018-06-16T21:59:42.775Z,16.47
2018-06-16T22:02:10.221Z,22.43
2018-06-16T22:04:37.566Z,13.50
2018-06-16T22:07:05.029Z,13.17
2018-06-16T22:09:32.522Z,14.60
2018-06-16T22:11:59.915Z,15.40
2018-06-16T22:14:27.301Z,13.57
2018-06-16T22:16:54.643Z,21.43
2018-06-16T22:19:22.076Z,15.73
2018-06-16T22:21:49.463Z,19.80
2018-06-16T22:24:16.828Z,15.50
2018-06-16T22:26:44.148Z,16.60
2018-06-16T22:29:11.543Z,19.20
2018-06-16T22:31:38.860Z,16.30
2018-06-16T22:34:06.344Z,21.70
2018-06-16T22:36:33.672Z,17.60
2018-06-16T22:39:01.011Z,19.40
2018-06-16T22:41:28.346Z,15.40
2018-06-16T22:43:55.695Z,16.20
2018-06-16T22:46:23.029Z,15.17
2018-06-16T22:48:50.533Z,16.93
2018-06-16T22:51:18.047Z,17.50
2018-06-16T22:53:45.419Z,19.20
2018-06-16T22:56:12.789Z,18.50
2018-06-16T22:58:40.157Z,18.70
2018-06-16T23:01:07.531Z,19.27
2018-06-16T23:03:34.856Z,23.03
2018-06-16T23:06:02.236Z,17.90
2018-06-16T23:08:29.596Z,16.23
2018-06-16T23:10:57.038Z,20.03
2018-06-16T23:13:24.474Z,21.13
2018-06-16T23:15:51.855Z,17.70
2018-06-16T23:18:19.412Z,17.13
2018-06-16T23:20:46.752Z,17.90
2018-06-16T23:23:14.099Z,16.73
2018-06-16T23:25:41.478Z,20.27
2018-06-16T23:28:08.843Z,16.97
2018-06-16T23:30:36.196Z,17.43
2018-06-16T23:33:03.542Z,12.60
2018-06-16T23:35:30.911Z,14.40
2018-06-16T23:37:58.575Z,10.40
2018-06-16T23:40:25.984Z,12.07
2018-06-16T23:42:53.364Z,7.93
2018-06-16T23:45:20.701Z,12.80
2018-06-16T23:47:48.075Z,7.97
2018-06-16T23:50:15.426Z,7.03
2018-06-16T23:52:42.754Z,12.40
2018-06-16T23:55:10.131Z,7.23
2018-06-16T23:57:37.459Z,7.67
